sensor_id;sensor_type;location;lat;lon;timestamp;P1;durP1;ratioP1;P2;durP2;ratioP2
1026;SDS011;502;48.746;9.214;2022-07-06T00:02:02;4.70;;;4.30;;
1026;SDS011;502;48.746;9.214;2022-07-06T00:04:29;5.97;;;4.27;;
1026;SDS011;502;48.746;9.214;2022-07-06T00:06:56;4.00;;;3.70;;
1026;SDS011;502;48.746;9.214;2022-07-06T00:09:23;4.20;;;3.90;;
1026;SDS011;502;48.746;9.214;2022-07-06T00:11:51;4.07;;;3.77;;
1026;SDS011;502;48.746;9.214;2022-07-06T00:14:18;4.20;;;3.80;;
1026;SDS011;502;48.746;9.214;2022-07-06T00:16:45;4.40;;;4.10;;
1026;SDS011;502;48.746;9.214;2022-07-06T00:19:12;4.73;;;4.20;;
1026;SDS011;502;48.746;9.214;2022-07-06T00:21:39;5.20;;;4.30;;
1026;SDS011;502;48.746;9.214;2022-07-06T00:24:06;4.47;;;4.07;;
1026;SDS011;502;48.746;9.214;2022-07-06T00:26:32;4.30;;;3.90;;
1026;SDS011;502;48.746;9.214;2022-07-06T00:29:01;4.07;;;3.77;;
1026;SDS011;502;48.746;9.214;2022-07-06T00:31:27;4.40;;;4.00;;
1026;SDS011;502;48.746;9.214;2022-07-06T00:33:54;5.17;;;4.27;;
1026;SDS011;502;48.746;9.214;2022-07-06T00:36:21;4.97;;;4.47;;
1026;SDS011;502;48.746;9.214;2022-07-06T00:38:48;5.93;;;4.20;;
1026;SDS011;502;48.746;9.214;2022-07-06T00:41:14;5.03;;;4.20;;
1026;SDS011;502;48.746;9.214;2022-07-06T00:43:51;4.87;;;4.47;;
1026;SDS011;502;48.746;9.214;2022-07-06T00:46:25;4.80;;;4.10;;
1026;SDS011;502;48.746;9.214;2022-07-06T00:48:55;4.67;;;4.27;;
1026;SDS011;502;48.746;9.214;2022-07-06T00:51:22;4.83;;;4.33;;
1026;SDS011;502;48.746;9.214;2022-07-06T00:53:52;4.60;;;4.23;;
1026;SDS011;502;48.746;9.214;2022-07-06T00:56:21;4.03;;;3.73;;
1026;SDS011;502;48.746;9.214;2022-07-06T00:58:48;4.80;;;4.40;;
1026;SDS011;502;48.746;9.214;2022-07-06T01:01:15;3.83;;;3.53;;
1026;SDS011;502;48.746;9.214;2022-07-06T01:03:43;4.93;;;4.23;;
1026;SDS011;502;48.746;9.214;2022-07-06T01:06:10;4.50;;;4.20;;
1026;SDS011;502;48.746;9.214;2022-07-06T01:08:37;5.33;;;4.80;;
1026;SDS011;502;48.746;9.214;2022-07-06T01:11:04;4.53;;;4.23;;
1026;SDS011;502;48.746;9.214;2022-07-06T01:13:31;4.43;;;4.03;;
1026;SDS011;502;48.746;9.214;2022-07-06T01:15:59;4.70;;;4.30;;
1026;SDS011;502;48.746;9.214;2022-07-06T01:18:26;4.10;;;3.67;;
1026;SDS011;502;48.746;9.214;2022-07-06T01:21:05;4.60;;;4.27;;
1026;SDS011;502;48.746;9.214;2022-07-06T01:23:32;4.40;;;3.90;;
1026;SDS011;502;48.746;9.214;2022-07-06T01:26:05;4.40;;;4.00;;
1026;SDS011;502;48.746;9.214;2022-07-06T01:28:31;4.73;;;3.90;;
1026;SDS011;502;48.746;9.214;2022-07-06T01:30:58;4.33;;;3.93;;
1026;SDS011;502;48.746;9.214;2022-07-06T01:33:25;4.53;;;4.17;;
1026;SDS011;502;48.746;9.214;2022-07-06T01:35:52;4.20;;;3.90;;
1026;SDS011;502;48.746;9.214;2022-07-06T01:38:20;4.63;;;3.97;;
1026;SDS011;502;48.746;9.214;2022-07-06T01:40:47;4.10;;;3.70;;
1026;SDS011;502;48.746;9.214;2022-07-06T01:43:14;5.67;;;3.67;;
1026;SDS011;502;48.746;9.214;2022-07-06T01:45:41;6.60;;;3.73;;
1026;SDS011;502;48.746;9.214;2022-07-06T01:48:08;4.30;;;3.90;;
1026;SDS011;502;48.746;9.214;2022-07-06T01:50:35;3.60;;;3.30;;
1026;SDS011;502;48.746;9.214;2022-07-06T01:53:02;4.20;;;3.73;;
1026;SDS011;502;48.746;9.214;2022-07-06T01:55:30;3.90;;;3.50;;
1026;SDS011;502;48.746;9.214;2022-07-06T01:57:57;4.17;;;3.87;;
1026;SDS011;502;48.746;9.214;2022-07-06T02:00:25;4.20;;;3.50;;
1026;SDS011;502;48.746;9.214;2022-07-06T02:02:52;6.23;;;3.77;;
1026;SDS011;502;48.746;9.214;2022-07-06T02:05:18;4.17;;;3.87;;
1026;SDS011;502;48.746;9.214;2022-07-06T02:07:45;6.17;;;3.60;;
1026;SDS011;502;48.746;9.214;2022-07-06T02:10:13;4.17;;;3.77;;
1026;SDS011;502;48.746;9.214;2022-07-06T02:12:42;4.10;;;3.73;;
1026;SDS011;502;48.746;9.214;2022-07-06T02:15:09;3.77;;;3.37;;
1026;SDS011;502;48.746;9.214;2022-07-06T02:17:37;4.40;;;3.50;;
1026;SDS011;502;48.746;9.214;2022-07-06T02:20:04;6.70;;;3.57;;
1026;SDS011;502;48.746;9.214;2022-07-06T02:22:32;6.87;;;3.83;;
1026;SDS011;502;48.746;9.214;2022-07-06T02:24:59;3.90;;;3.60;;
1026;SDS011;502;48.746;9.214;2022-07-06T02:27:26;5.10;;;3.53;;
1026;SDS011;502;48.746;9.214;2022-07-06T02:29:54;5.73;;;4.00;;
1026;SDS011;502;48.746;9.214;2022-07-06T02:32:21;8.80;;;3.90;;
1026;SDS011;502;48.746;9.214;2022-07-06T02:34:49;4.53;;;3.77;;
1026;SDS011;502;48.746;9.214;2022-07-06T02:37:16;4.10;;;3.70;;
1026;SDS011;502;48.746;9.214;2022-07-06T02:39:43;4.13;;;3.80;;
1026;SDS011;502;48.746;9.214;2022-07-06T02:42:11;3.80;;;3.50;;
1026;SDS011;502;48.746;9.214;2022-07-06T02:44:37;4.00;;;3.70;;
1026;SDS011;502;48.746;9.214;2022-07-06T02:47:05;4.60;;;4.20;;
1026;SDS011;502;48.746;9.214;2022-07-06T02:49:33;5.20;;;4.70;;
1026;SDS011;502;48.746;9.214;2022-07-06T02:52:00;4.10;;;3.70;;
1026;SDS011;502;48.746;9.214;2022-07-06T02:54:28;5.00;;;4.10;;
1026;SDS011;502;48.746;9.214;2022-07-06T02:56:54;5.23;;;4.07;;
1026;SDS011;502;48.746;9.214;2022-07-06T02:59:21;4.93;;;3.73;;
1026;SDS011;502;48.746;9.214;2022-07-06T03:01:49;4.23;;;3.90;;
1026;SDS011;502;48.746;9.214;2022-07-06T03:04:18;4.20;;;3.80;;
1026;SDS011;502;48.746;9.214;2022-07-06T03:06:45;18.57;;;4.67;;
1026;SDS011;502;48.746;9.214;2022-07-06T03:09:12;4.20;;;3.80;;
1026;SDS011;502;48.746;9.214;2022-07-06T03:11:39;4.57;;;4.17;;
1026;SDS011;502;48.746;9.214;2022-07-06T03:14:07;4.57;;;3.90;;
1026;SDS011;502;48.746;9.214;2022-07-06T03:16:36;6.47;;;4.50;;
1026;SDS011;502;48.746;9.214;2022-07-06T03:19:03;5.60;;;4.53;;
1026;SDS011;502;48.746;9.214;2022-07-06T03:21:34;7.10;;;4.13;;
1026;SDS011;502;48.746;9.214;2022-07-06T03:24:01;5.07;;;4.67;;
1026;SDS011;502;48.746;9.214;2022-07-06T03:26:29;4.30;;;3.90;;
1026;SDS011;502;48.746;9.214;2022-07-06T03:28:56;5.37;;;4.07;;
1026;SDS011;502;48.746;9.214;2022-07-06T03:31:23;4.37;;;4.07;;
1026;SDS011;502;48.746;9.214;2022-07-06T03:33:50;4.40;;;4.00;;
1026;SDS011;502;48.746;9.214;2022-07-06T03:36:18;4.17;;;3.77;;
1026;SDS011;502;48.746;9.214;2022-07-06T03:38:47;5.20;;;4.20;;
1026;SDS011;502;48.746;9.214;2022-07-06T03:41:14;4.23;;;3.93;;
1026;SDS011;502;48.746;9.214;2022-07-06T03:43:41;6.00;;;4.57;;
1026;SDS011;502;48.746;9.214;2022-07-06T03:46:08;4.47;;;3.93;;
1026;SDS011;502;48.746;9.214;2022-07-06T03:48:35;5.20;;;4.70;;
1026;SDS011;502;48.746;9.214;2022-07-06T03:51:04;5.40;;;4.60;;
1026;SDS011;502;48.746;9.214;2022-07-06T03:53:32;4.43;;;4.10;;
1026;SDS011;502;48.746;9.214;2022-07-06T03:56:00;4.20;;;3.90;;
1026;SDS011;502;48.746;9.214;2022-07-06T03:58:44;7.87;;;4.57;;
1026;SDS011;502;48.746;9.214;2022-07-06T04:01:11;7.97;;;4.77;;
1026;SDS011;502;48.746;9.214;2022-07-06T04:03:38;4.30;;;3.90;;
1026;SDS011;502;48.746;9.214;2022-07-06T04:06:06;4.67;;;4.27;;
1026;SDS011;502;48.746;9.214;2022-07-06T04:08:33;4.70;;;4.30;;
1026;SDS011;502;48.746;9.214;2022-07-06T04:11:02;4.30;;;4.00;;
1026;SDS011;502;48.746;9.214;2022-07-06T04:13:30;5.53;;;4.70;;
1026;SDS011;502;48.746;9.214;2022-07-06T04:15:57;4.83;;;4.43;;
1026;SDS011;502;48.746;9.214;2022-07-06T04:18:24;4.83;;;4.30;;
1026;SDS011;502;48.746;9.214;2022-07-06T04:20:53;4.80;;;4.37;;
1026;SDS011;502;48.746;9.214;2022-07-06T04:23:20;4.93;;;4.43;;
1026;SDS011;502;48.746;9.214;2022-07-06T04:25:47;4.73;;;4.43;;
1026;SDS011;502;48.746;9.214;2022-07-06T04:28:15;7.60;;;4.70;;
1026;SDS011;502;48.746;9.214;2022-07-06T04:30:42;5.50;;;5.00;;
1026;SDS011;502;48.746;9.214;2022-07-06T04:33:14;6.40;;;4.33;;
1026;SDS011;502;48.746;9.214;2022-07-06T04:35:43;6.13;;;4.77;;
1026;SDS011;502;48.746;9.214;2022-07-06T04:38:10;5.77;;;5.27;;
1026;SDS011;502;48.746;9.214;2022-07-06T04:40:37;5.50;;;5.10;;
1026;SDS011;502;48.746;9.214;2022-07-06T04:43:08;6.20;;;5.60;;
1026;SDS011;502;48.746;9.214;2022-07-06T04:45:37;5.70;;;5.20;;
1026;SDS011;502;48.746;9.214;2022-07-06T04:48:04;5.43;;;5.03;;
1026;SDS011;502;48.746;9.214;2022-07-06T04:50:34;6.30;;;5.70;;
1026;SDS011;502;48.746;9.214;2022-07-06T04:53:03;5.60;;;5.10;;
1026;SDS011;502;48.746;9.214;2022-07-06T04:55:32;5.47;;;5.13;;
1026;SDS011;502;48.746;9.214;2022-07-06T04:57:58;5.77;;;5.17;;
1026;SDS011;502;48.746;9.214;2022-07-06T05:00:26;5.73;;;5.23;;
1026;SDS011;502;48.746;9.214;2022-07-06T05:02:54;7.37;;;5.73;;
1026;SDS011;502;48.746;9.214;2022-07-06T05:05:24;5.47;;;4.97;;
1026;SDS011;502;48.746;9.214;2022-07-06T05:07:52;5.30;;;4.63;;
1026;SDS011;502;48.746;9.214;2022-07-06T05:10:19;6.27;;;5.67;;
1026;SDS011;502;48.746;9.214;2022-07-06T05:12:49;6.63;;;5.37;;
1026;SDS011;502;48.746;9.214;2022-07-06T05:15:16;5.17;;;4.67;;
1026;SDS011;502;48.746;9.214;2022-07-06T05:17:43;7.57;;;5.40;;
1026;SDS011;502;48.746;9.214;2022-07-06T05:20:12;5.40;;;5.00;;
1026;SDS011;502;48.746;9.214;2022-07-06T05:22:42;5.67;;;5.27;;
1026;SDS011;502;48.746;9.214;2022-07-06T05:25:09;6.17;;;5.67;;
1026;SDS011;502;48.746;9.214;2022-07-06T05:27:36;5.80;;;5.30;;
1026;SDS011;502;48.746;9.214;2022-07-06T05:30:04;6.03;;;5.53;;
1026;SDS011;502;48.746;9.214;2022-07-06T05:32:32;5.60;;;5.10;;
1026;SDS011;502;48.746;9.214;2022-07-06T05:34:59;7.73;;;5.43;;
1026;SDS011;502;48.746;9.214;2022-07-06T05:37:27;5.63;;;5.10;;
1026;SDS011;502;48.746;9.214;2022-07-06T05:39:54;5.97;;;5.47;;
1026;SDS011;502;48.746;9.214;2022-07-06T05:42:21;6.00;;;5.40;;
1026;SDS011;502;48.746;9.214;2022-07-06T05:44:48;6.17;;;5.70;;
1026;SDS011;502;48.746;9.214;2022-07-06T05:47:15;5.47;;;5.07;;
1026;SDS011;502;48.746;9.214;2022-07-06T05:49:59;7.30;;;5.57;;
1026;SDS011;502;48.746;9.214;2022-07-06T05:52:58;6.90;;;5.83;;
1026;SDS011;502;48.746;9.214;2022-07-06T05:55:28;5.90;;;5.40;;
1026;SDS011;502;48.746;9.214;2022-07-06T05:57:57;6.03;;;5.43;;
1026;SDS011;502;48.746;9.214;2022-07-06T06:00:26;5.07;;;4.67;;
1026;SDS011;502;48.746;9.214;2022-07-06T06:02:57;9.63;;;5.30;;
1026;SDS011;502;48.746;9.214;2022-07-06T06:05:24;5.70;;;5.20;;
1026;SDS011;502;48.746;9.214;2022-07-06T06:07:57;6.27;;;5.67;;
1026;SDS011;502;48.746;9.214;2022-07-06T06:10:25;6.17;;;5.13;;
1026;SDS011;502;48.746;9.214;2022-07-06T06:12:55;5.20;;;4.80;;
1026;SDS011;502;48.746;9.214;2022-07-06T06:15:22;5.57;;;5.10;;
1026;SDS011;502;48.746;9.214;2022-07-06T06:17:49;5.30;;;4.90;;
1026;SDS011;502;48.746;9.214;2022-07-06T06:20:16;5.67;;;5.17;;
1026;SDS011;502;48.746;9.214;2022-07-06T06:22:46;5.57;;;5.13;;
1026;SDS011;502;48.746;9.214;2022-07-06T06:25:15;5.30;;;4.90;;
1026;SDS011;502;48.746;9.214;2022-07-06T06:27:42;5.77;;;5.17;;
1026;SDS011;502;48.746;9.214;2022-07-06T06:30:09;5.17;;;4.77;;
1026;SDS011;502;48.746;9.214;2022-07-06T06:32:36;5.83;;;5.33;;
1026;SDS011;502;48.746;9.214;2022-07-06T06:35:03;9.23;;;5.37;;
1026;SDS011;502;48.746;9.214;2022-07-06T06:37:31;6.37;;;5.00;;
1026;SDS011;502;48.746;9.214;2022-07-06T06:39:59;5.40;;;4.90;;
1026;SDS011;502;48.746;9.214;2022-07-06T06:42:27;6.07;;;5.57;;
1026;SDS011;502;48.746;9.214;2022-07-06T06:44:54;5.53;;;5.13;;
1026;SDS011;502;48.746;9.214;2022-07-06T06:47:20;6.67;;;5.33;;
1026;SDS011;502;48.746;9.214;2022-07-06T06:49:47;5.43;;;4.93;;
1026;SDS011;502;48.746;9.214;2022-07-06T06:52:14;6.43;;;5.83;;
1026;SDS011;502;48.746;9.214;2022-07-06T06:54:43;7.37;;;5.20;;
1026;SDS011;502;48.746;9.214;2022-07-06T06:57:10;6.00;;;5.40;;
1026;SDS011;502;48.746;9.214;2022-07-06T06:59:38;6.13;;;5.20;;
1026;SDS011;502;48.746;9.214;2022-07-06T07:02:05;5.77;;;5.10;;
1026;SDS011;502;48.746;9.214;2022-07-06T07:04:32;5.30;;;4.80;;
1026;SDS011;502;48.746;9.214;2022-07-06T07:06:59;7.23;;;5.77;;
1026;SDS011;502;48.746;9.214;2022-07-06T07:09:25;6.03;;;5.53;;
1026;SDS011;502;48.746;9.214;2022-07-06T07:11:52;6.10;;;5.57;;
1026;SDS011;502;48.746;9.214;2022-07-06T07:14:20;5.60;;;5.20;;
1026;SDS011;502;48.746;9.214;2022-07-06T07:16:48;6.03;;;5.37;;
1026;SDS011;502;48.746;9.214;2022-07-06T07:19:15;5.83;;;5.30;;
1026;SDS011;502;48.746;9.214;2022-07-06T07:21:41;5.40;;;5.00;;
1026;SDS011;502;48.746;9.214;2022-07-06T07:24:08;5.47;;;5.07;;
1026;SDS011;502;48.746;9.214;2022-07-06T07:26:35;5.80;;;5.30;;
1026;SDS011;502;48.746;9.214;2022-07-06T07:29:04;7.93;;;5.40;;
1026;SDS011;502;48.746;9.214;2022-07-06T07:31:31;6.03;;;5.43;;
1026;SDS011;502;48.746;9.214;2022-07-06T07:33:59;6.03;;;5.53;;
1026;SDS011;502;48.746;9.214;2022-07-06T07:36:26;5.33;;;4.93;;
1026;SDS011;502;48.746;9.214;2022-07-06T07:38:52;5.23;;;4.73;;
1026;SDS011;502;48.746;9.214;2022-07-06T07:41:19;5.17;;;4.70;;
1026;SDS011;502;48.746;9.214;2022-07-06T07:43:46;5.40;;;4.97;;
1026;SDS011;502;48.746;9.214;2022-07-06T07:46:13;5.10;;;4.60;;
1026;SDS011;502;48.746;9.214;2022-07-06T07:48:39;6.63;;;4.97;;
1026;SDS011;502;48.746;9.214;2022-07-06T07:51:08;5.80;;;5.20;;
1026;SDS011;502;48.746;9.214;2022-07-06T07:53:35;5.77;;;5.37;;
1026;SDS011;502;48.746;9.214;2022-07-06T07:56:01;5.50;;;5.10;;
1026;SDS011;502;48.746;9.214;2022-07-06T07:58:28;6.30;;;5.80;;
1026;SDS011;502;48.746;9.214;2022-07-06T08:00:55;4.77;;;4.47;;
1026;SDS011;502;48.746;9.214;2022-07-06T08:03:22;5.27;;;4.73;;
1026;SDS011;502;48.746;9.214;2022-07-06T08:05:48;5.93;;;5.40;;
1026;SDS011;502;48.746;9.214;2022-07-06T08:08:17;5.70;;;5.20;;
1026;SDS011;502;48.746;9.214;2022-07-06T08:10:44;6.80;;;6.00;;
1026;SDS011;502;48.746;9.214;2022-07-06T08:13:11;5.73;;;5.17;;
1026;SDS011;502;48.746;9.214;2022-07-06T08:15:39;5.60;;;5.17;;
1026;SDS011;502;48.746;9.214;2022-07-06T08:18:06;6.60;;;6.00;;
1026;SDS011;502;48.746;9.214;2022-07-06T08:20:34;6.00;;;5.20;;
1026;SDS011;502;48.746;9.214;2022-07-06T08:23:01;6.70;;;6.00;;
1026;SDS011;502;48.746;9.214;2022-07-06T08:25:29;6.63;;;6.03;;
1026;SDS011;502;48.746;9.214;2022-07-06T08:27:56;6.37;;;5.27;;
1026;SDS011;502;48.746;9.214;2022-07-06T08:30:23;7.07;;;5.80;;
1026;SDS011;502;48.746;9.214;2022-07-06T08:32:51;5.63;;;4.80;;
1026;SDS011;502;48.746;9.214;2022-07-06T08:35:18;6.10;;;5.53;;
1026;SDS011;502;48.746;9.214;2022-07-06T08:37:44;6.73;;;5.73;;
1026;SDS011;502;48.746;9.214;2022-07-06T08:40:11;6.20;;;5.60;;
1026;SDS011;502;48.746;9.214;2022-07-06T08:42:40;6.03;;;5.20;;
1026;SDS011;502;48.746;9.214;2022-07-06T08:45:08;6.60;;;6.00;;
1026;SDS011;502;48.746;9.214;2022-07-06T08:47:35;6.30;;;5.80;;
1026;SDS011;502;48.746;9.214;2022-07-06T08:50:03;6.53;;;5.10;;
1026;SDS011;502;48.746;9.214;2022-07-06T08:52:30;5.87;;;5.27;;
1026;SDS011;502;48.746;9.214;2022-07-06T08:54:57;5.60;;;5.10;;
1026;SDS011;502;48.746;9.214;2022-07-06T08:57:25;6.03;;;5.43;;
1026;SDS011;502;48.746;9.214;2022-07-06T08:59:53;6.07;;;5.47;;
1026;SDS011;502;48.746;9.214;2022-07-06T09:02:21;6.03;;;5.53;;
1026;SDS011;502;48.746;9.214;2022-07-06T09:04:50;5.73;;;4.87;;
1026;SDS011;502;48.746;9.214;2022-07-06T09:07:18;5.20;;;4.70;;
1026;SDS011;502;48.746;9.214;2022-07-06T09:09:45;5.27;;;4.77;;
1026;SDS011;502;48.746;9.214;2022-07-06T09:12:11;5.20;;;4.80;;
1026;SDS011;502;48.746;9.214;2022-07-06T09:14:39;6.37;;;4.30;;
1026;SDS011;502;48.746;9.214;2022-07-06T09:17:07;5.33;;;4.93;;
1026;SDS011;502;48.746;9.214;2022-07-06T09:19:34;6.07;;;5.30;;
1026;SDS011;502;48.746;9.214;2022-07-06T09:22:01;5.17;;;4.60;;
1026;SDS011;502;48.746;9.214;2022-07-06T09:24:28;5.77;;;5.27;;
1026;SDS011;502;48.746;9.214;2022-07-06T09:26:57;6.87;;;5.20;;
1026;SDS011;502;48.746;9.214;2022-07-06T09:29:26;4.53;;;4.13;;
1026;SDS011;502;48.746;9.214;2022-07-06T09:31:58;6.30;;;5.70;;
1026;SDS011;502;48.746;9.214;2022-07-06T09:34:26;6.47;;;5.10;;
1026;SDS011;502;48.746;9.214;2022-07-06T09:37:07;5.70;;;5.20;;
1026;SDS011;502;48.746;9.214;2022-07-06T09:39:34;5.10;;;4.30;;
1026;SDS011;502;48.746;9.214;2022-07-06T09:42:01;6.90;;;5.53;;
1026;SDS011;502;48.746;9.214;2022-07-06T09:44:29;5.70;;;5.00;;
1026;SDS011;502;48.746;9.214;2022-07-06T09:46:57;5.07;;;4.57;;
1026;SDS011;502;48.746;9.214;2022-07-06T09:49:26;6.50;;;4.93;;
1026;SDS011;502;48.746;9.214;2022-07-06T09:51:54;5.93;;;5.23;;
1026;SDS011;502;48.746;9.214;2022-07-06T09:54:22;7.23;;;4.70;;
1026;SDS011;502;48.746;9.214;2022-07-06T09:56:49;5.03;;;4.63;;
1026;SDS011;502;48.746;9.214;2022-07-06T09:59:17;9.43;;;5.60;;
1026;SDS011;502;48.746;9.214;2022-07-06T10:01:46;6.17;;;4.30;;
1026;SDS011;502;48.746;9.214;2022-07-06T10:04:13;5.70;;;5.10;;
1026;SDS011;502;48.746;9.214;2022-07-06T10:06:41;6.00;;;5.50;;
1026;SDS011;502;48.746;9.214;2022-07-06T10:09:09;5.70;;;4.83;;
1026;SDS011;502;48.746;9.214;2022-07-06T10:11:37;5.10;;;4.70;;
1026;SDS011;502;48.746;9.214;2022-07-06T10:14:06;11.20;;;6.07;;
1026;SDS011;502;48.746;9.214;2022-07-06T10:16:34;5.70;;;5.10;;
1026;SDS011;502;48.746;9.214;2022-07-06T10:19:04;5.53;;;5.00;;
1026;SDS011;502;48.746;9.214;2022-07-06T10:21:31;5.67;;;5.07;;
1026;SDS011;502;48.746;9.214;2022-07-06T10:24:02;4.67;;;4.27;;
1026;SDS011;502;48.746;9.214;2022-07-06T10:26:29;5.67;;;5.17;;
1026;SDS011;502;48.746;9.214;2022-07-06T10:28:57;5.90;;;5.40;;
1026;SDS011;502;48.746;9.214;2022-07-06T10:31:24;8.90;;;5.83;;
1026;SDS011;502;48.746;9.214;2022-07-06T10:33:51;5.97;;;5.37;;
1026;SDS011;502;48.746;9.214;2022-07-06T10:36:18;6.90;;;6.40;;
1026;SDS011;502;48.746;9.214;2022-07-06T10:38:46;6.00;;;5.50;;
1026;SDS011;502;48.746;9.214;2022-07-06T10:41:16;5.07;;;4.57;;
1026;SDS011;502;48.746;9.214;2022-07-06T10:43:44;6.53;;;5.93;;
1026;SDS011;502;48.746;9.214;2022-07-06T10:46:12;5.10;;;4.70;;
1026;SDS011;502;48.746;9.214;2022-07-06T10:48:40;5.57;;;5.10;;
1026;SDS011;502;48.746;9.214;2022-07-06T10:51:09;6.87;;;5.10;;
1026;SDS011;502;48.746;9.214;2022-07-06T10:53:37;6.20;;;5.10;;
1026;SDS011;502;48.746;9.214;2022-07-06T10:56:06;5.63;;;5.00;;
1026;SDS011;502;48.746;9.214;2022-07-06T10:58:35;6.63;;;4.63;;
1026;SDS011;502;48.746;9.214;2022-07-06T11:01:04;6.17;;;5.27;;
1026;SDS011;502;48.746;9.214;2022-07-06T11:03:36;6.53;;;5.00;;
1026;SDS011;502;48.746;9.214;2022-07-06T11:06:07;8.20;;;5.30;;
1026;SDS011;502;48.746;9.214;2022-07-06T11:08:55;6.40;;;5.90;;
1026;SDS011;502;48.746;9.214;2022-07-06T11:11:23;5.83;;;5.30;;
1026;SDS011;502;48.746;9.214;2022-07-06T11:13:53;6.53;;;5.70;;
1026;SDS011;502;48.746;9.214;2022-07-06T11:16:22;7.30;;;6.60;;
1026;SDS011;502;48.746;9.214;2022-07-06T11:18:59;9.33;;;5.83;;
1026;SDS011;502;48.746;9.214;2022-07-06T11:21:34;8.90;;;5.90;;
1026;SDS011;502;48.746;9.214;2022-07-06T11:24:03;7.73;;;5.00;;
1026;SDS011;502;48.746;9.214;2022-07-06T11:26:31;5.63;;;4.87;;
1026;SDS011;502;48.746;9.214;2022-07-06T11:28:59;5.60;;;5.10;;
1026;SDS011;502;48.746;9.214;2022-07-06T11:31:26;5.13;;;4.73;;
1026;SDS011;502;48.746;9.214;2022-07-06T11:33:54;5.23;;;4.73;;
1026;SDS011;502;48.746;9.214;2022-07-06T11:36:21;6.13;;;5.53;;
1026;SDS011;502;48.746;9.214;2022-07-06T11:38:49;5.97;;;5.30;;
1026;SDS011;502;48.746;9.214;2022-07-06T11:41:17;6.97;;;6.37;;
1026;SDS011;502;48.746;9.214;2022-07-06T11:43:44;6.53;;;5.97;;
1026;SDS011;502;48.746;9.214;2022-07-06T11:46:23;5.07;;;4.60;;
1026;SDS011;502;48.746;9.214;2022-07-06T11:48:52;6.10;;;5.60;;
1026;SDS011;502;48.746;9.214;2022-07-06T11:51:20;6.23;;;5.47;;
1026;SDS011;502;48.746;9.214;2022-07-06T11:53:47;6.50;;;5.40;;
1026;SDS011;502;48.746;9.214;2022-07-06T11:56:15;6.83;;;5.87;;
1026;SDS011;502;48.746;9.214;2022-07-06T11:58:44;6.93;;;6.33;;
1026;SDS011;502;48.746;9.214;2022-07-06T12:01:12;6.27;;;5.67;;
1026;SDS011;502;48.746;9.214;2022-07-06T12:03:41;5.63;;;5.13;;
1026;SDS011;502;48.746;9.214;2022-07-06T12:06:12;5.90;;;5.40;;
1026;SDS011;502;48.746;9.214;2022-07-06T12:08:41;6.73;;;6.13;;
1026;SDS011;502;48.746;9.214;2022-07-06T12:11:08;7.07;;;6.37;;
1026;SDS011;502;48.746;9.214;2022-07-06T12:13:36;8.10;;;5.50;;
1026;SDS011;502;48.746;9.214;2022-07-06T12:16:08;5.63;;;5.10;;
1026;SDS011;502;48.746;9.214;2022-07-06T12:18:36;6.97;;;5.80;;
1026;SDS011;502;48.746;9.214;2022-07-06T12:21:06;6.37;;;5.67;;
1026;SDS011;502;48.746;9.214;2022-07-06T12:23:43;6.90;;;6.20;;
1026;SDS011;502;48.746;9.214;2022-07-06T12:26:11;7.07;;;6.33;;
1026;SDS011;502;48.746;9.214;2022-07-06T12:28:38;6.30;;;5.70;;
1026;SDS011;502;48.746;9.214;2022-07-06T12:31:05;6.60;;;5.70;;
1026;SDS011;502;48.746;9.214;2022-07-06T12:33:32;6.97;;;5.23;;
1026;SDS011;502;48.746;9.214;2022-07-06T12:36:11;6.40;;;5.80;;
1026;SDS011;502;48.746;9.214;2022-07-06T12:38:45;7.67;;;5.67;;
1026;SDS011;502;48.746;9.214;2022-07-06T12:41:29;6.60;;;5.87;;
1026;SDS011;502;48.746;9.214;2022-07-06T12:44:05;6.57;;;5.80;;
1026;SDS011;502;48.746;9.214;2022-07-06T12:46:33;6.20;;;5.70;;
1026;SDS011;502;48.746;9.214;2022-07-06T12:49:01;6.40;;;5.80;;
1026;SDS011;502;48.746;9.214;2022-07-06T12:51:39;7.40;;;5.33;;
1026;SDS011;502;48.746;9.214;2022-07-06T12:54:15;6.43;;;5.80;;
1026;SDS011;502;48.746;9.214;2022-07-06T12:59:35;5.53;;;5.03;;
1026;SDS011;502;48.746;9.214;2022-07-06T13:02:04;5.43;;;4.93;;
1026;SDS011;502;48.746;9.214;2022-07-06T13:04:33;5.80;;;5.30;;
1026;SDS011;502;48.746;9.214;2022-07-06T13:07:00;7.70;;;5.77;;
1026;SDS011;502;48.746;9.214;2022-07-06T13:09:27;9.37;;;4.87;;
1026;SDS011;502;48.746;9.214;2022-07-06T13:11:54;6.77;;;6.07;;
1026;SDS011;502;48.746;9.214;2022-07-06T13:14:21;5.50;;;5.00;;
1026;SDS011;502;48.746;9.214;2022-07-06T13:16:49;5.67;;;5.17;;
1026;SDS011;502;48.746;9.214;2022-07-06T13:19:16;4.77;;;4.47;;
1026;SDS011;502;48.746;9.214;2022-07-06T13:21:43;5.97;;;5.37;;
1026;SDS011;502;48.746;9.214;2022-07-06T13:24:11;6.03;;;5.43;;
1026;SDS011;502;48.746;9.214;2022-07-06T13:26:38;9.80;;;5.90;;
1026;SDS011;502;48.746;9.214;2022-07-06T13:29:05;6.00;;;5.43;;
1026;SDS011;502;48.746;9.214;2022-07-06T13:31:32;7.87;;;5.30;;
1026;SDS011;502;48.746;9.214;2022-07-06T13:34:00;6.03;;;5.20;;
1026;SDS011;502;48.746;9.214;2022-07-06T13:36:27;5.20;;;4.70;;
1026;SDS011;502;48.746;9.214;2022-07-06T13:38:54;4.73;;;4.30;;
1026;SDS011;502;48.746;9.214;2022-07-06T13:41:20;5.93;;;4.87;;
1026;SDS011;502;48.746;9.214;2022-07-06T13:43:47;4.87;;;4.43;;
1026;SDS011;502;48.746;9.214;2022-07-06T13:46:14;5.73;;;5.23;;
1026;SDS011;502;48.746;9.214;2022-07-06T13:48:42;5.10;;;4.70;;
1026;SDS011;502;48.746;9.214;2022-07-06T13:51:10;6.63;;;4.80;;
1026;SDS011;502;48.746;9.214;2022-07-06T13:53:37;5.23;;;4.57;;
1026;SDS011;502;48.746;9.214;2022-07-06T13:56:04;5.20;;;4.80;;
1026;SDS011;502;48.746;9.214;2022-07-06T13:58:33;6.03;;;5.47;;
1026;SDS011;502;48.746;9.214;2022-07-06T14:01:00;5.53;;;4.40;;
1026;SDS011;502;48.746;9.214;2022-07-06T14:03:29;5.97;;;5.33;;
1026;SDS011;502;48.746;9.214;2022-07-06T14:05:56;7.90;;;5.13;;
1026;SDS011;502;48.746;9.214;2022-07-06T14:08:25;5.23;;;4.83;;
1026;SDS011;502;48.746;9.214;2022-07-06T14:10:52;5.90;;;5.40;;
1026;SDS011;502;48.746;9.214;2022-07-06T14:13:19;5.23;;;4.83;;
1026;SDS011;502;48.746;9.214;2022-07-06T14:15:46;7.67;;;4.63;;
1026;SDS011;502;48.746;9.214;2022-07-06T14:18:13;6.20;;;5.60;;
1026;SDS011;502;48.746;9.214;2022-07-06T14:20:42;7.03;;;5.07;;
1026;SDS011;502;48.746;9.214;2022-07-06T14:23:09;4.87;;;4.47;;
1026;SDS011;502;48.746;9.214;2022-07-06T14:25:38;5.90;;;5.40;;
1026;SDS011;502;48.746;9.214;2022-07-06T14:28:04;5.23;;;4.80;;
1026;SDS011;502;48.746;9.214;2022-07-06T14:30:32;5.53;;;5.03;;
1026;SDS011;502;48.746;9.214;2022-07-06T14:32:59;5.63;;;4.60;;
1026;SDS011;502;48.746;9.214;2022-07-06T14:35:26;5.73;;;4.70;;
1026;SDS011;502;48.746;9.214;2022-07-06T14:37:53;5.10;;;4.60;;
1026;SDS011;502;48.746;9.214;2022-07-06T14:40:20;5.30;;;4.90;;
1026;SDS011;502;48.746;9.214;2022-07-06T14:42:48;5.03;;;4.70;;
1026;SDS011;502;48.746;9.214;2022-07-06T14:45:15;8.83;;;4.70;;
1026;SDS011;502;48.746;9.214;2022-07-06T14:47:42;4.47;;;4.17;;
1026;SDS011;502;48.746;9.214;2022-07-06T14:50:08;5.50;;;5.00;;
1026;SDS011;502;48.746;9.214;2022-07-06T14:52:35;4.70;;;4.40;;
1026;SDS011;502;48.746;9.214;2022-07-06T14:55:02;4.70;;;4.30;;
1026;SDS011;502;48.746;9.214;2022-07-06T14:57:29;4.90;;;4.40;;
1026;SDS011;502;48.746;9.214;2022-07-06T14:59:57;4.87;;;4.47;;
1026;SDS011;502;48.746;9.214;2022-07-06T15:02:24;4.50;;;4.07;;
1026;SDS011;502;48.746;9.214;2022-07-06T15:04:51;5.43;;;4.93;;
1026;SDS011;502;48.746;9.214;2022-07-06T15:07:18;5.40;;;4.63;;
1026;SDS011;502;48.746;9.214;2022-07-06T15:09:44;4.67;;;4.27;;
1026;SDS011;502;48.746;9.214;2022-07-06T15:12:11;4.40;;;4.00;;
1026;SDS011;502;48.746;9.214;2022-07-06T15:14:38;5.40;;;4.63;;
1026;SDS011;502;48.746;9.214;2022-07-06T15:17:06;5.10;;;4.60;;
1026;SDS011;502;48.746;9.214;2022-07-06T15:19:33;4.30;;;4.00;;
1026;SDS011;502;48.746;9.214;2022-07-06T15:22:00;5.03;;;4.60;;
1026;SDS011;502;48.746;9.214;2022-07-06T15:24:27;4.23;;;3.83;;
1026;SDS011;502;48.746;9.214;2022-07-06T15:26:53;4.37;;;3.97;;
1026;SDS011;502;48.746;9.214;2022-07-06T15:29:20;4.33;;;3.97;;
1026;SDS011;502;48.746;9.214;2022-07-06T15:31:47;4.50;;;4.00;;
1026;SDS011;502;48.746;9.214;2022-07-06T15:34:15;4.60;;;4.20;;
1026;SDS011;502;48.746;9.214;2022-07-06T15:36:42;4.40;;;3.93;;
1026;SDS011;502;48.746;9.214;2022-07-06T15:39:08;10.70;;;4.13;;